createdAt,value
2018-05-24T00:01:48.165Z,5.30
2018-05-24T00:04:15.810Z,5.17
2018-05-24T00:06:43.414Z,5.07
2018-05-24T00:09:11.169Z,4.97
2018-05-24T00:11:38.768Z,4.67
2018-05-24T00:14:06.404Z,5.20
2018-05-24T00:16:33.988Z,4.10
2018-05-24T00:19:01.621Z,4.27
2018-05-24T00:21:29.268Z,3.97
2018-05-24T00:23:57.077Z,4.10
2018-05-24T00:26:24.802Z,4.93
2018-05-24T00:28:52.401Z,4.50
2018-05-24T00:31:19.989Z,4.53
2018-05-24T00:33:47.605Z,4.20
2018-05-24T00:36:15.245Z,4.43
2018-05-24T00:38:42.834Z,4.37
2018-05-24T00:41:10.511Z,4.20
2018-05-24T00:43:38.185Z,3.90
2018-05-24T00:46:07.120Z,4.50
2018-05-24T00:48:34.797Z,4.30
2018-05-24T00:51:02.413Z,4.43
2018-05-24T00:53:30.081Z,4.13
2018-05-24T00:55:57.717Z,4.13
2018-05-24T00:58:25.318Z,5.20
2018-05-24T01:00:52.953Z,4.10
2018-05-24T01:03:20.656Z,4.47
2018-05-24T01:05:48.258Z,4.30
2018-05-24T01:08:15.935Z,3.50
2018-05-24T01:10:43.526Z,4.00
2018-05-24T01:13:11.145Z,3.90
2018-05-24T01:15:38.752Z,3.87
2018-05-24T01:18:06.441Z,3.97
2018-05-24T01:20:34.025Z,3.50
2018-05-24T01:23:01.672Z,4.23
2018-05-24T01:25:29.262Z,4.50
2018-05-24T01:27:56.884Z,4.37
2018-05-24T01:30:24.486Z,3.53
2018-05-24T01:32:52.105Z,3.70
2018-05-24T01:35:19.711Z,3.53
2018-05-24T01:37:50.165Z,3.70
2018-05-24T01:40:17.775Z,3.53
2018-05-24T01:42:45.483Z,3.53
2018-05-24T01:45:13.137Z,3.30
2018-05-24T01:47:40.736Z,3.53
2018-05-24T01:50:08.357Z,3.40
2018-05-24T01:52:36.001Z,4.10
2018-05-24T01:55:03.597Z,3.50
2018-05-24T01:57:31.198Z,3.40
2018-05-24T01:59:58.828Z,3.70
2018-05-24T02:02:26.436Z,3.60
2018-05-24T02:04:54.074Z,4.03
2018-05-24T02:07:21.673Z,2.97
2018-05-24T02:09:49.265Z,3.87
2018-05-24T02:12:16.893Z,3.33
2018-05-24T02:14:44.508Z,3.40
2018-05-24T02:17:12.125Z,3.60
2018-05-24T02:19:39.877Z,3.40
2018-05-24T02:22:07.476Z,3.50
2018-05-24T02:24:35.276Z,3.77
2018-05-24T02:27:02.865Z,3.10
2018-05-24T02:29:30.470Z,3.20
2018-05-24T02:31:58.098Z,3.10
2018-05-24T02:34:25.869Z,3.60
2018-05-24T02:36:53.564Z,3.93
2018-05-24T02:39:21.169Z,3.13
2018-05-24T02:41:48.798Z,3.80
2018-05-24T02:44:16.389Z,3.77
2018-05-24T02:46:44.064Z,3.83
2018-05-24T02:49:11.700Z,3.93
2018-05-24T02:51:39.348Z,3.60
2018-05-24T02:54:06.996Z,3.80
2018-05-24T02:56:34.869Z,3.40
2018-05-24T02:59:02.456Z,3.90
2018-05-24T03:01:30.069Z,3.90
2018-05-24T03:03:57.675Z,3.83
2018-05-24T03:06:25.313Z,4.10
2018-05-24T03:08:52.949Z,3.57
2018-05-24T03:11:20.602Z,3.73
2018-05-24T03:13:48.206Z,3.60
2018-05-24T03:16:15.805Z,4.07
2018-05-24T03:18:43.435Z,3.40
2018-05-24T03:21:11.025Z,3.23
2018-05-24T03:23:38.651Z,3.40
2018-05-24T03:26:06.241Z,2.90
2018-05-24T03:28:33.876Z,3.20
2018-05-24T03:31:01.469Z,3.50
2018-05-24T03:33:29.108Z,3.30
2018-05-24T03:35:56.825Z,3.50
2018-05-24T03:38:24.516Z,3.60
2018-05-24T03:40:52.162Z,3.70
2018-05-24T03:43:19.784Z,3.53
2018-05-24T03:45:47.388Z,3.63
2018-05-24T03:48:15.029Z,3.57
2018-05-24T03:50:42.628Z,3.60
2018-05-24T03:53:10.241Z,4.00
2018-05-24T03:55:37.835Z,3.93
2018-05-24T03:58:05.476Z,4.07
2018-05-24T04:00:44.561Z,3.27
2018-05-24T04:03:23.821Z,19.90
2018-05-24T04:05:51.441Z,14.00
2018-05-24T04:08:20.737Z,14.70
2018-05-24T04:10:48.327Z,3.80
2018-05-24T04:13:15.960Z,3.20
2018-05-24T04:15:43.575Z,3.90
2018-05-24T04:18:11.321Z,4.27
2018-05-24T04:20:39.056Z,3.30
2018-05-24T04:23:06.562Z,6.63
2018-05-24T04:25:34.337Z,5.13
2018-05-24T04:28:01.945Z,3.80
2018-05-24T04:30:29.576Z,3.40
2018-05-24T04:32:57.303Z,3.00
2018-05-24T04:35:24.873Z,3.77
2018-05-24T04:37:52.459Z,3.30
2018-05-24T04:40:20.101Z,3.50
2018-05-24T04:42:47.704Z,3.90
2018-05-24T04:45:15.337Z,3.10
2018-05-24T04:47:42.929Z,4.23
2018-05-24T04:50:10.581Z,3.90
2018-05-24T04:52:38.165Z,3.43
2018-05-24T04:55:05.808Z,3.27
2018-05-24T04:57:33.481Z,2.83
2018-05-24T05:00:01.180Z,3.67
2018-05-24T05:02:28.801Z,2.70
2018-05-24T05:04:56.473Z,2.90
2018-05-24T05:07:24.085Z,3.40
2018-05-24T05:09:51.721Z,3.70
2018-05-24T05:12:19.432Z,3.60
2018-05-24T05:14:47.071Z,3.53
2018-05-24T05:17:14.689Z,3.23
2018-05-24T05:19:42.288Z,4.00
2018-05-24T05:22:09.929Z,3.87
2018-05-24T05:24:37.540Z,4.07
2018-05-24T05:27:05.170Z,4.00
2018-05-24T05:29:32.791Z,3.23
2018-05-24T05:32:00.426Z,3.43
2018-05-24T05:34:28.060Z,4.03
2018-05-24T05:36:55.745Z,3.33
2018-05-24T05:39:23.358Z,3.67
2018-05-24T05:41:50.975Z,3.90
2018-05-24T05:44:18.658Z,4.40
2018-05-24T05:46:46.293Z,4.10
2018-05-24T05:49:13.913Z,4.20
2018-05-24T05:51:41.665Z,3.93
2018-05-24T05:54:09.252Z,4.37
2018-05-24T05:56:36.892Z,3.90
2018-05-24T05:59:04.524Z,4.37
2018-05-24T06:01:32.153Z,4.50
2018-05-24T06:03:59.753Z,4.63
2018-05-24T06:06:27.365Z,3.57
2018-05-24T06:08:55.008Z,5.07
2018-05-24T06:11:22.612Z,4.37
2018-05-24T06:13:50.335Z,4.77
2018-05-24T06:16:17.969Z,4.33
2018-05-24T06:18:45.787Z,4.60
2018-05-24T06:21:13.462Z,4.57
2018-05-24T06:23:41.103Z,4.33
2018-05-24T06:26:08.948Z,5.57
2018-05-24T06:28:36.742Z,4.37
2018-05-24T06:31:04.216Z,5.00
2018-05-24T06:33:31.879Z,4.93
2018-05-24T06:35:59.478Z,4.60
2018-05-24T06:38:27.175Z,5.60
2018-05-24T06:44:33.945Z,5.50
2018-05-24T06:47:01.777Z,5.37
2018-05-24T06:49:30.446Z,5.90
2018-05-24T06:51:58.042Z,5.80
2018-05-24T06:54:25.721Z,6.07
2018-05-24T06:56:53.351Z,5.33
2018-05-24T06:59:20.990Z,5.80
2018-05-24T07:01:48.603Z,6.40
2018-05-24T07:04:16.241Z,5.60
2018-05-24T07:06:43.860Z,6.30
2018-05-24T07:09:11.594Z,6.40
2018-05-24T07:11:39.216Z,6.47
2018-05-24T07:14:06.892Z,6.90
2018-05-24T07:16:34.509Z,6.70
2018-05-24T07:19:02.374Z,6.33
2018-05-24T07:21:30.021Z,6.20
2018-05-24T07:23:57.605Z,5.43
2018-05-24T07:26:25.246Z,6.90
2018-05-24T07:28:53.021Z,5.90
2018-05-24T07:31:20.644Z,5.50
2018-05-24T07:33:48.241Z,5.43
2018-05-24T07:36:15.880Z,5.23
2018-05-24T07:38:43.477Z,6.37
2018-05-24T07:41:11.248Z,5.00
2018-05-24T07:43:38.859Z,6.00
2018-05-24T07:46:06.522Z,5.60
2018-05-24T07:48:34.117Z,6.60
2018-05-24T07:51:01.757Z,6.23
2018-05-24T07:53:29.348Z,6.20
2018-05-24T07:55:56.990Z,6.83
2018-05-24T07:58:24.601Z,5.97
2018-05-24T08:00:52.238Z,5.53
2018-05-24T08:03:19.826Z,5.50
2018-05-24T08:05:47.457Z,5.30
2018-05-24T08:08:15.165Z,5.13
2018-05-24T08:10:42.774Z,5.03
2018-05-24T08:13:10.432Z,4.90
2018-05-24T08:15:38.041Z,5.27
2018-05-24T08:18:05.661Z,4.70
2018-05-24T08:20:33.265Z,5.33
2018-05-24T08:23:00.893Z,4.60
2018-05-24T08:25:28.600Z,4.90
2018-05-24T08:27:56.235Z,4.53
2018-05-24T08:30:23.833Z,5.03
2018-05-24T08:32:51.464Z,5.30
2018-05-24T08:35:19.060Z,4.80
2018-05-24T08:37:46.753Z,6.00
2018-05-24T08:40:14.393Z,6.40
2018-05-24T08:42:42.017Z,5.57
2018-05-24T08:45:09.609Z,5.97
2018-05-24T08:47:37.309Z,6.77
2018-05-24T08:50:04.924Z,6.33
2018-05-24T08:52:32.524Z,7.10
2018-05-24T08:55:00.148Z,6.80
2018-05-24T08:57:27.944Z,6.57
2018-05-24T08:59:55.633Z,6.00
2018-05-24T09:02:23.227Z,7.10
2018-05-24T09:04:50.863Z,7.03
2018-05-24T09:07:18.481Z,7.13
2018-05-24T09:09:46.212Z,7.63
2018-05-24T09:12:13.745Z,6.83
2018-05-24T09:14:41.381Z,6.90
2018-05-24T09:17:08.984Z,7.07
2018-05-24T09:19:36.628Z,6.97
2018-05-24T09:22:04.222Z,7.00
2018-05-24T09:24:31.929Z,7.30
2018-05-24T09:26:59.530Z,7.10
2018-05-24T09:29:27.226Z,8.20
2018-05-24T09:31:54.824Z,7.70
2018-05-24T09:34:22.423Z,6.57
2018-05-24T09:36:50.046Z,6.97
2018-05-24T09:39:17.747Z,7.47
2018-05-24T09:41:45.377Z,7.83
2018-05-24T09:44:12.976Z,7.40
2018-05-24T09:46:40.660Z,6.70
2018-05-24T09:49:08.270Z,6.87
2018-05-24T09:51:35.961Z,7.50
2018-05-24T09:54:03.563Z,7.27
2018-05-24T09:56:31.199Z,7.57
2018-05-24T09:58:58.789Z,7.77
2018-05-24T10:01:26.452Z,8.07
2018-05-24T10:03:54.054Z,8.27
2018-05-24T10:06:21.735Z,8.77
2018-05-24T10:08:49.338Z,8.20
2018-05-24T10:11:16.975Z,7.40
2018-05-24T10:13:44.608Z,8.27
2018-05-24T10:16:12.226Z,8.03
2018-05-24T10:18:39.925Z,7.90
2018-05-24T10:21:07.526Z,7.37
2018-05-24T10:23:35.260Z,8.03
2018-05-24T10:26:02.770Z,8.13
2018-05-24T10:28:30.498Z,8.20
2018-05-24T10:30:58.091Z,7.93
2018-05-24T10:33:25.764Z,7.97
2018-05-24T10:35:53.361Z,8.10
2018-05-24T10:38:21.232Z,8.27
2018-05-24T10:40:48.829Z,8.53
2018-05-24T10:43:16.472Z,8.57
2018-05-24T10:45:44.073Z,9.30
2018-05-24T10:48:11.693Z,8.47
2018-05-24T10:50:39.328Z,8.90
2018-05-24T10:53:06.968Z,8.07
2018-05-24T10:55:34.581Z,9.10
2018-05-24T10:58:02.318Z,8.13
2018-05-24T11:00:29.921Z,8.67
2018-05-24T11:02:57.667Z,9.53
2018-05-24T11:05:25.201Z,8.93
2018-05-24T11:07:52.839Z,8.20
2018-05-24T11:10:20.434Z,9.50
2018-05-24T11:12:48.072Z,9.70
2018-05-24T11:15:15.739Z,8.97
2018-05-24T11:17:43.345Z,9.00
2018-05-24T11:20:10.991Z,9.60
2018-05-24T11:22:38.602Z,9.83
2018-05-24T11:25:06.423Z,9.67
2018-05-24T11:27:34.010Z,8.80
2018-05-24T11:30:01.660Z,8.40
2018-05-24T11:32:29.284Z,7.77
2018-05-24T11:34:56.940Z,9.03
2018-05-24T11:37:24.588Z,8.70
2018-05-24T11:39:52.208Z,8.50
2018-05-24T11:42:20.015Z,8.87
2018-05-24T11:44:47.648Z,12.30
2018-05-24T11:47:15.236Z,9.17
2018-05-24T11:49:42.876Z,8.17
2018-05-24T11:52:10.589Z,7.97
2018-05-24T11:54:38.218Z,8.30
2018-05-24T11:57:05.814Z,8.27
2018-05-24T11:59:33.454Z,8.70
2018-05-24T12:02:01.061Z,8.57
2018-05-24T12:04:28.730Z,8.30
2018-05-24T12:06:56.399Z,8.43
2018-05-24T12:09:23.957Z,8.73
2018-05-24T12:11:51.617Z,7.90
2018-05-24T12:14:19.356Z,6.50
2018-05-24T12:16:46.997Z,8.07
2018-05-24T12:19:14.585Z,6.80
2018-05-24T12:21:42.256Z,7.40
2018-05-24T12:24:09.872Z,7.00
2018-05-24T12:26:37.617Z,6.30
2018-05-24T12:29:05.463Z,5.53
2018-05-24T12:31:33.173Z,7.60
2018-05-24T12:34:00.804Z,6.40
2018-05-24T12:36:28.452Z,6.73
2018-05-24T12:38:56.112Z,6.90
2018-05-24T12:41:23.737Z,6.57
2018-05-24T12:43:51.448Z,6.87
2018-05-24T12:46:19.101Z,7.60
2018-05-24T12:48:46.750Z,8.03
2018-05-24T12:51:14.434Z,7.30
2018-05-24T12:53:42.022Z,7.47
2018-05-24T12:56:09.764Z,8.20
2018-05-24T12:58:37.353Z,7.30
2018-05-24T13:01:04.993Z,7.20
2018-05-24T13:03:32.618Z,7.30
2018-05-24T13:06:00.256Z,7.40
2018-05-24T13:08:27.942Z,7.93
2018-05-24T13:10:55.555Z,7.30
2018-05-24T13:13:23.194Z,7.07
2018-05-24T13:15:50.800Z,7.93
2018-05-24T13:18:18.434Z,7.77
2018-05-24T13:20:46.047Z,9.60
2018-05-24T13:23:13.688Z,8.63
2018-05-24T13:25:41.306Z,9.50
2018-05-24T13:28:08.937Z,8.13
2018-05-24T13:30:36.544Z,7.87
2018-05-24T13:33:04.169Z,9.13
2018-05-24T13:35:31.880Z,9.00
2018-05-24T13:37:59.521Z,8.33
2018-05-24T13:40:27.168Z,8.47
2018-05-24T13:42:54.799Z,8.50
2018-05-24T13:45:22.541Z,8.17
2018-05-24T13:47:50.685Z,9.13
2018-05-24T13:50:18.281Z,9.43
2018-05-24T13:52:45.919Z,8.73
2018-05-24T13:55:13.537Z,8.97
2018-05-24T13:57:45.977Z,9.73
2018-05-24T14:00:13.561Z,8.83
2018-05-24T14:02:41.248Z,9.30
2018-05-24T14:05:08.854Z,9.50
2018-05-24T14:07:36.477Z,9.50
2018-05-24T14:10:04.130Z,9.63
2018-05-24T14:12:31.752Z,9.63
2018-05-24T14:14:59.372Z,9.23
2018-05-24T14:17:27.186Z,9.43
2018-05-24T14:19:54.831Z,9.20
2018-05-24T14:22:22.432Z,9.87
2018-05-24T14:24:50.074Z,9.00
2018-05-24T14:27:17.704Z,13.67
2018-05-24T14:29:45.330Z,8.33
2018-05-24T14:32:12.936Z,7.80
2018-05-24T14:34:40.577Z,9.07
2018-05-24T14:37:08.201Z,8.33
2018-05-24T14:39:35.857Z,7.90
2018-05-24T14:42:03.506Z,8.40
2018-05-24T14:44:31.187Z,8.57
2018-05-24T14:46:58.843Z,9.07
2018-05-24T14:49:26.541Z,8.27
2018-05-24T14:51:54.130Z,8.47
2018-05-24T14:54:21.768Z,8.80
2018-05-24T14:56:49.437Z,7.80
2018-05-24T14:59:17.038Z,8.47
2018-05-24T15:01:44.672Z,8.90
2018-05-24T15:04:12.269Z,8.90
2018-05-24T15:06:39.897Z,8.53
2018-05-24T15:09:07.496Z,7.87
2018-05-24T15:11:35.133Z,8.17
2018-05-24T15:14:02.717Z,8.40
2018-05-24T15:16:30.353Z,7.70
2018-05-24T15:18:57.964Z,7.57
2018-05-24T15:21:25.597Z,8.00
2018-05-24T15:23:53.318Z,7.60
2018-05-24T15:26:20.974Z,7.93
2018-05-24T15:28:48.607Z,7.00
2018-05-24T15:31:16.295Z,12.30
2018-05-24T15:33:43.916Z,7.20
2018-05-24T15:36:11.650Z,7.63
2018-05-24T15:38:39.360Z,6.83
2018-05-24T15:41:07.012Z,6.63
2018-05-24T15:43:34.699Z,7.30
2018-05-24T15:46:02.334Z,7.37
2018-05-24T15:48:29.977Z,6.87
2018-05-24T15:50:57.622Z,6.80
2018-05-24T15:53:25.222Z,7.43
2018-05-24T15:55:52.834Z,7.03
2018-05-24T15:58:20.479Z,5.97
2018-05-24T16:00:48.097Z,6.67
2018-05-24T16:03:15.745Z,6.63
2018-05-24T16:05:43.525Z,7.37
2018-05-24T16:08:11.165Z,8.10
2018-05-24T16:10:39.012Z,7.10
2018-05-24T16:13:06.653Z,6.33
2018-05-24T16:15:34.265Z,6.30
2018-05-24T16:18:01.921Z,7.70
2018-05-24T16:20:29.589Z,7.77
2018-05-24T16:22:57.328Z,5.97
2018-05-24T16:25:25.223Z,5.47
2018-05-24T16:27:52.858Z,6.70
2018-05-24T16:30:20.585Z,5.40
2018-05-24T16:32:48.274Z,4.60
2018-05-24T16:35:16.102Z,6.13
2018-05-24T16:37:43.764Z,5.20
2018-05-24T16:40:11.453Z,5.20
2018-05-24T16:42:39.057Z,5.33
2018-05-24T16:45:06.780Z,4.60
2018-05-24T16:47:34.428Z,5.10
2018-05-24T16:50:02.054Z,5.73
2018-05-24T16:52:29.657Z,5.03
2018-05-24T16:54:57.296Z,5.70
2018-05-24T16:57:24.912Z,5.03
2018-05-24T16:59:52.541Z,5.20
2018-05-24T17:02:20.160Z,4.73
2018-05-24T17:04:47.797Z,4.70
2018-05-24T17:07:15.469Z,4.60
2018-05-24T17:09:43.111Z,4.87
2018-05-24T17:12:10.709Z,5.23
2018-05-24T17:14:38.393Z,4.70
2018-05-24T17:17:06.001Z,5.30
2018-05-24T17:19:33.741Z,4.80
2018-05-24T17:22:01.394Z,5.83
2018-05-24T17:24:29.068Z,9.03
2018-05-24T17:26:56.700Z,5.83
2018-05-24T17:29:24.313Z,4.23
2018-05-24T17:31:52.016Z,4.90
2018-05-24T17:34:19.619Z,5.30
2018-05-24T17:36:47.316Z,4.57
2018-05-24T17:39:14.957Z,8.77
2018-05-24T17:41:42.634Z,10.77
2018-05-24T17:44:10.238Z,4.83
2018-05-24T17:46:37.890Z,4.70
2018-05-24T17:49:05.543Z,4.27
2018-05-24T17:51:33.222Z,4.50
2018-05-24T17:54:00.823Z,4.63
2018-05-24T17:56:28.476Z,4.63
2018-05-24T17:58:56.086Z,4.47
2018-05-24T18:01:23.712Z,5.40
2018-05-24T18:03:51.376Z,4.63
2018-05-24T18:06:19.075Z,4.83
2018-05-24T18:08:46.690Z,4.37
2018-05-24T18:11:14.317Z,4.60
2018-05-24T18:13:41.950Z,7.57
2018-05-24T18:16:09.581Z,5.10
2018-05-24T18:18:37.241Z,5.53
2018-05-24T18:21:04.919Z,5.23
2018-05-24T18:23:32.562Z,4.53
2018-05-24T18:26:00.227Z,5.63
2018-05-24T18:28:27.935Z,5.60
2018-05-24T18:30:55.534Z,5.97
2018-05-24T18:33:23.212Z,5.90
2018-05-24T18:35:50.953Z,5.70
2018-05-24T18:38:18.593Z,15.20
2018-05-24T18:40:46.271Z,7.20
2018-05-24T18:43:13.931Z,6.73
2018-05-24T18:45:41.553Z,7.20
2018-05-24T18:48:09.214Z,7.00
2018-05-24T18:50:36.852Z,7.33
2018-05-24T18:53:04.470Z,7.73
2018-05-24T18:55:32.136Z,8.23
2018-05-24T18:57:59.757Z,11.57
2018-05-24T19:00:27.433Z,8.37
2018-05-24T19:02:55.053Z,7.83
2018-05-24T19:05:22.734Z,8.60
2018-05-24T19:07:50.341Z,8.90
2018-05-24T19:10:18.030Z,7.60
2018-05-24T19:12:45.693Z,8.20
2018-05-24T19:15:13.342Z,8.50
2018-05-24T19:17:40.957Z,8.70
2018-05-24T19:20:08.689Z,8.73
2018-05-24T19:22:36.289Z,8.13
2018-05-24T19:25:04.082Z,10.60
2018-05-24T19:27:31.699Z,8.00
2018-05-24T19:29:59.420Z,8.63
2018-05-24T19:32:27.044Z,8.70
2018-05-24T19:34:54.739Z,8.53
2018-05-24T19:37:22.364Z,8.60
2018-05-24T19:39:49.986Z,8.17
2018-05-24T19:42:17.665Z,6.80
2018-05-24T19:44:45.287Z,8.90
2018-05-24T19:47:12.957Z,8.27
2018-05-24T19:49:40.569Z,8.30
2018-05-24T19:52:08.823Z,9.87
2018-05-24T19:54:36.432Z,10.40
2018-05-24T19:57:04.104Z,9.30
2018-05-24T19:59:31.709Z,9.27
2018-05-24T20:01:59.419Z,9.20
2018-05-24T20:04:26.990Z,9.07
2018-05-24T20:06:54.787Z,9.43
2018-05-24T20:09:22.505Z,10.10
2018-05-24T20:11:50.152Z,11.27
2018-05-24T20:14:17.790Z,10.33
2018-05-24T20:16:45.473Z,11.03
2018-05-24T20:19:13.081Z,10.10
2018-05-24T20:21:40.721Z,10.13
2018-05-24T20:24:08.353Z,9.60
2018-05-24T20:26:36.070Z,10.63
2018-05-24T20:29:03.782Z,10.70
2018-05-24T20:31:32.315Z,10.50
2018-05-24T20:33:59.977Z,10.40
2018-05-24T20:36:27.614Z,10.53
2018-05-24T20:38:55.270Z,10.53
2018-05-24T20:41:22.885Z,10.70
2018-05-24T20:43:50.834Z,10.70
2018-05-24T20:46:18.442Z,10.67
2018-05-24T20:48:46.141Z,10.83
2018-05-24T20:51:13.741Z,11.93
2018-05-24T20:53:41.405Z,11.03
2018-05-24T20:56:09.012Z,11.37
2018-05-24T20:58:36.752Z,12.13
2018-05-24T21:01:04.376Z,11.20
2018-05-24T21:03:32.102Z,11.17
2018-05-24T21:05:59.760Z,10.30
2018-05-24T21:08:27.565Z,11.90
2018-05-24T21:10:55.155Z,11.20
2018-05-24T21:13:22.842Z,11.13
2018-05-24T21:15:50.487Z,10.50
2018-05-24T21:18:18.148Z,12.20
2018-05-24T21:20:45.880Z,11.80
2018-05-24T21:23:13.524Z,11.70
2018-05-24T21:25:41.192Z,12.40
2018-05-24T21:28:08.823Z,11.80
2018-05-24T21:30:36.475Z,10.87
2018-05-24T21:33:04.092Z,10.77
2018-05-24T21:35:31.804Z,11.70
2018-05-24T21:37:59.477Z,12.20
2018-05-24T21:40:27.231Z,11.63
2018-05-24T21:42:54.981Z,11.83
2018-05-24T21:45:22.697Z,12.43
2018-05-24T21:47:50.315Z,12.27
2018-05-24T21:50:17.973Z,11.83
2018-05-24T21:52:45.694Z,12.43
2018-05-24T21:55:13.357Z,12.77
2018-05-24T21:57:41.130Z,12.33
2018-05-24T22:00:08.756Z,12.33
2018-05-24T22:02:36.388Z,13.10
2018-05-24T22:05:04.203Z,11.23
2018-05-24T22:07:31.869Z,12.97
2018-05-24T22:09:59.522Z,12.17
2018-05-24T22:12:27.131Z,12.30
2018-05-24T22:14:54.809Z,12.73
2018-05-24T22:17:22.417Z,13.40
2018-05-24T22:19:50.010Z,12.00
2018-05-24T22:22:17.757Z,13.70
2018-05-24T22:24:45.448Z,12.50
2018-05-24T22:27:13.112Z,12.07
2018-05-24T22:29:40.730Z,12.10
2018-05-24T22:32:08.377Z,12.20
2018-05-24T22:34:35.991Z,12.47
2018-05-24T22:37:03.764Z,12.67
2018-05-24T22:39:31.377Z,13.17
2018-05-24T22:41:59.008Z,13.20
2018-05-24T22:44:26.609Z,13.30
2018-05-24T22:46:54.372Z,13.90
2018-05-24T22:49:22.006Z,12.30
2018-05-24T22:51:49.651Z,13.20
2018-05-24T22:54:17.265Z,12.90
2018-05-24T22:56:44.944Z,11.53
2018-05-24T22:59:12.522Z,12.17
2018-05-24T23:01:40.149Z,12.93
2018-05-24T23:04:07.956Z,13.53
2018-05-24T23:06:36.265Z,12.70
2018-05-24T23:09:03.846Z,14.00
2018-05-24T23:11:31.647Z,12.87
2018-05-24T23:13:59.282Z,13.00
2018-05-24T23:16:26.952Z,14.83
2018-05-24T23:18:54.594Z,13.93
2018-05-24T23:21:22.182Z,13.37
2018-05-24T23:23:49.952Z,12.20
2018-05-24T23:26:17.691Z,14.87
2018-05-24T23:28:45.329Z,13.77
2018-05-24T23:31:12.931Z,13.73
2018-05-24T23:33:40.580Z,13.80
2018-05-24T23:36:08.217Z,13.40
2018-05-24T23:38:35.955Z,14.13
2018-05-24T23:41:03.572Z,14.40
2018-05-24T23:43:31.173Z,14.30
2018-05-24T23:45:58.937Z,13.93
2018-05-24T23:48:26.550Z,14.33
2018-05-24T23:50:54.209Z,13.80
2018-05-24T23:53:21.817Z,13.40
2018-05-24T23:55:49.465Z,15.03
2018-05-24T23:58:17.078Z,13.60
